Airfield :
LOGIN :

Register | Disclaimer

   EN    FR    IT 

 










Legend :    VFR   Marginal VFR   IFR   Intensive IFR   Very Intensive IFR
Visi :
Ceiling :
>= 8 km
>= 3000ft
5 to 8 km
1000 to 3000 ft
1500m to 5 km
500 to 1000 ft
800 to 1500m
200 to 500 ft
< 800m
< 200 ft
Symbols :   Thunderstorms  Fog  Heavy snow  Heavy precipitations  Wind > 20 kt
SIGMETs :     Misc.  Thunderstorms  Icing  Turbulence  Mountain Waves  Volcanic Ashes






- Airport Elevation : 284 ft


EGUW - RAF Wattisham

CURRENT METAR :
  • 211850Z 11007KT 3000 BR FEW004 OVC010 05/05 Q1002 RMK YLO1

EXPIRED METARs :
  • 211750Z 11009KT 3000 BR OVC004 05/05 Q1002 RMK YLO2
  • 211650Z 12010KT 3000 BR OVC003 05/04 Q1002 TEMPO 2000 BKN002 RMK YLO2 TEMPO AMB

TAF TAF EGUW
Valid from the 21 at 18:00 until the 22 at 01:00 UTC


211640Z 2118/2201 12010KT 3000 BR OVC003
PROB40
TEMPO 2118/2201 2000 BR BKN002



MET'MAP, your aeronautical weather chart ! - Copyright ORBIFLY December 2007 - Disclaimer

ORBIFLY MET'MAP TEAM :

Programming & Development : Alexandra Zaïnal
Concept & Development : Baudouin d'Aumeries
Co-Development & Prog : Marc-Olivier Méhu
Technical & hardware support : Manuel Goepfert

Contact : metmap@orbifly.com




SOURCES & CREDITS :

   NOAA